EW5678 Stony Brook NY US current weather conditions

sailwx.info

Wind from 031 at 30 knots gusting 38

Air temperature 3.9° C
Dewpoint -4.6° C

Last reported at 2019-Dec-05 19:07 UTC.
Time now 2019-Dec-05 19:42 UTC

Location: N 40°55' W 073°07'.
View on Google Maps.

See reports from other nearby stations

  
Tides and Currents Weather Stations Pressure Air Temp Water Temp Dewpoint Dewpoint Depression Visibility Wind Speed Wind Dir Waves Ship Positions
date/time (UTC)wind fromknots sea level pressurealtimeterstation pressurevisibilityair tempwater tempwave heightnotes
2019-Dec-05 19:07 031 30 gusting 38 3.9
2019-Dec-05 18:58 033 29 gusting 39 3.9
2019-Dec-05 18:49 033 30 gusting 39 3.9
2019-Dec-05 18:40 028 30 gusting 39 3.9
2019-Dec-05 18:31 029 29 gusting 40 3.9
2019-Dec-05 18:22 027 27 gusting 39 3.9
2019-Dec-05 18:13 037 32 gusting 41 3.3
2019-Dec-05 18:04 030 31 gusting 43 3.3
2019-Dec-05 17:55 021 32 gusting 44 3.3
2019-Dec-05 17:46 022 33 gusting 41 3.3
2019-Dec-05 17:37 018 29 gusting 41 3.3
2019-Dec-05 17:28 017 30 gusting 44 3.3
2019-Dec-05 17:19 017 26 gusting 44 3.9
2019-Dec-05 17:10 023 27 gusting 40 3.9
2019-Dec-05 17:01 023 26 gusting 39 3.9
2019-Dec-05 16:52 021 27 gusting 39 3.9
2019-Dec-05 16:43 018 26 gusting 38 3.9
2019-Dec-05 16:34 021 28 gusting 38 3.9
2019-Dec-05 16:25 024 26 gusting 34 4.4
2019-Dec-05 16:16 018 28 gusting 39 3.9
2019-Dec-05 16:07 023 28 gusting 39 3.9
2019-Dec-05 15:58 020 31 gusting 40 3.9
2019-Dec-05 15:49 021 28 gusting 36 3.9
2019-Dec-05 15:40 019 32 gusting 39 3.9
2019-Dec-05 15:31 020 26 gusting 39 3.9
2019-Dec-05 15:22 018 26 gusting 36 3.3
2019-Dec-05 15:13 014 21 gusting 33 3.9
2019-Dec-05 15:04 015 24 gusting 34 3.9
2019-Dec-05 14:55 014 24 gusting 34 3.9
2019-Dec-05 14:46 018 22 gusting 33 3.3
2019-Dec-05 14:37 019 22 gusting 33 3.3
2019-Dec-05 14:28 020 22 gusting 31 3.3
2019-Dec-05 14:19 021 23 gusting 33 3.3
2019-Dec-05 14:10 018 25 gusting 36 3.3
2019-Dec-05 14:01 020 24 gusting 35 3.3
2019-Dec-05 13:52 019 21 gusting 30 3.3
2019-Dec-05 13:43 016 23 gusting 33 3.3
2019-Dec-05 13:34 022 21 gusting 33 3.3
2019-Dec-05 13:25 019 19 gusting 31 3.3
2019-Dec-05 13:16 019 18 gusting 28 2.8
2019-Dec-05 13:07 016 16 gusting 22 2.8
2019-Dec-05 12:58 015 16 gusting 22 2.2
2019-Dec-05 12:49 016 15 gusting 22 2.2
2019-Dec-05 12:40 011 14 gusting 21 2.2
2019-Dec-05 12:31 013 14 gusting 19 2.2
2019-Dec-05 12:22 018 15 gusting 21 2.8
2019-Dec-05 12:13 022 15 gusting 25 2.8
2019-Dec-05 12:04 019 15 gusting 22 2.8
2019-Dec-05 11:55 023 17 gusting 23 2.8
2019-Dec-05 11:46 022 19 gusting 26 2.8
2019-Dec-05 11:37 024 19 gusting 26 2.8
2019-Dec-05 11:28 029 17 gusting 24 2.8
2019-Dec-05 11:19 031 19 gusting 26 2.8
2019-Dec-05 11:10 031 22 gusting 28 2.8
2019-Dec-05 11:01 026 19 gusting 26 2.8
2019-Dec-05 10:52 024 20 gusting 26 2.8
2019-Dec-05 10:43 026 20 gusting 26 2.8
2019-Dec-05 10:34 025 21 gusting 28 2.8
2019-Dec-05 10:25 027 19 gusting 28 2.8
2019-Dec-05 10:16 025 17 gusting 26 2.2
2019-Dec-05 10:07 018 13 gusting 21 2.2
2019-Dec-05 09:58 015 14 gusting 22 2.2
2019-Dec-05 09:49 013 15 gusting 20 2.2
2019-Dec-05 09:40 015 15 gusting 20 2.2
2019-Dec-05 09:31 018 15 gusting 21 2.2
2019-Dec-05 09:22 017 15 gusting 21 2.2
2019-Dec-05 09:13 017 14 gusting 21 2.2
2019-Dec-05 09:04 012 13 gusting 19 1.7
2019-Dec-05 08:55 010 13 gusting 19 2.2
2019-Dec-05 08:46 009 11 gusting 14 1.7
2019-Dec-05 08:37 012 10 gusting 14 1.7
2019-Dec-05 08:28 012 10 gusting 14 1.7
2019-Dec-05 08:19 010 10 gusting 14 1.7
2019-Dec-05 08:10 012 11 gusting 14 1.7
2019-Dec-05 08:01 010 9 gusting 13 1.7
2019-Dec-05 07:52 009 8 gusting 13 1.7
2019-Dec-05 07:43 013 9 gusting 13 2.2
2019-Dec-05 07:34 005 8 gusting 13 1.7
2019-Dec-05 07:25 005 9 gusting 15 2.2
2019-Dec-05 07:16 008 11 gusting 16 2.2
2019-Dec-05 07:07 008 11 gusting 15 2.2
2019-Dec-05 06:58 004 11 gusting 18 2.2
2019-Dec-05 06:49 005 11 gusting 16 2.2
2019-Dec-05 06:40 007 9 gusting 14 2.2
2019-Dec-05 06:31 009 6 gusting 11 2.2
2019-Dec-05 06:22 008 9 gusting 13 2.2
2019-Dec-05 06:13 009 9 gusting 13 2.2
2019-Dec-05 06:04 010 8 gusting 13 2.2
2019-Dec-05 05:55 009 7 gusting 13 2.2
2019-Dec-05 05:46 358 8 gusting 13 2.2
2019-Dec-05 05:37 010 8 gusting 15 2.2
2019-Dec-05 05:28 001 6 gusting 12 2.2
2019-Dec-05 05:19 008 6 gusting 12 2.2
2019-Dec-05 05:10 006 7 gusting 13 2.2
2019-Dec-05 05:01 009 7 gusting 13 2.2
2019-Dec-05 04:52 012 6 gusting 11 2.2
2019-Dec-05 04:43 359 6 gusting 11 2.2
2019-Dec-05 04:34 002 6 gusting 12 2.2
2019-Dec-05 04:25 013 6 gusting 10 2.2
2019-Dec-05 04:16 004 6 gusting 11 2.2
2019-Dec-05 04:07 007 7 gusting 11 2.2
2019-Dec-05 03:58 014 7 gusting 15 2.2
2019-Dec-05 03:49 013 7 gusting 15 2.2
2019-Dec-05 03:40 014 6 gusting 12 2.2
2019-Dec-05 03:31 008 6 gusting 8 2.2
2019-Dec-05 03:22 018 5 gusting 11 2.2
2019-Dec-05 03:13 019 6 gusting 11 2.2
2019-Dec-05 03:04 010 7 gusting 13 2.2
2019-Dec-05 02:55 016 6 gusting 13 2.8
2019-Dec-05 02:46 003 7 gusting 14 2.8
2019-Dec-05 02:37 008 6 gusting 11 2.8
2019-Dec-05 02:28 005 6 gusting 12 2.8
2019-Dec-05 02:19 007 8 gusting 13 2.8
2019-Dec-05 02:10 003 8 gusting 15 2.8
2019-Dec-05 02:01 007 8 gusting 12 2.8
2019-Dec-05 01:52 007 8 gusting 13 2.8
2019-Dec-05 01:43 011 6 gusting 13 2.8
2019-Dec-05 01:34 020 5 gusting 9 2.8
2019-Dec-05 01:25 009 6 gusting 10 2.8
2019-Dec-05 01:16 007 7 gusting 13 2.8
2019-Dec-05 01:07 012 9 gusting 14 2.8
2019-Dec-05 00:58 011 9 gusting 15 2.8
2019-Dec-05 00:49 013 8 gusting 13 2.8
2019-Dec-05 00:40 010 8 gusting 16 2.8
2019-Dec-05 00:31 009 9 gusting 16 2.8
2019-Dec-05 00:22 008 8 gusting 14 2.8
2019-Dec-05 00:13 006 7 gusting 13 2.8
2019-Dec-05 00:04 014 11 gusting 18 2.8
2019-Dec-04 23:55 012 13 gusting 17 2.8
2019-Dec-04 23:46 014 13 gusting 17 2.8
2019-Dec-04 23:37 008 13 gusting 16 2.8
2019-Dec-04 23:28 009 9 gusting 15 2.8
2019-Dec-04 23:19 012 9 gusting 13 2.8
2019-Dec-04 23:10 015 9 gusting 13 2.2
2019-Dec-04 23:01 007 8 gusting 13 2.8
2019-Dec-04 22:52 011 6 gusting 13 2.8
2019-Dec-04 22:43 012 7 gusting 13 2.8
2019-Dec-04 22:34 008 9 gusting 14 2.8
2019-Dec-04 22:25 009 8 gusting 13 2.8
2019-Dec-04 22:16 011 7 gusting 14 2.8
2019-Dec-04 22:07 011 7 gusting 12 2.8
2019-Dec-04 21:58 013 7 gusting 14 2.8
2019-Dec-04 21:49 014 6 gusting 13 2.8
2019-Dec-04 21:40 006 7 gusting 13 2.8
2019-Dec-04 21:31 009 6 gusting 12 2.8
2019-Dec-04 21:22 006 6 gusting 12 2.8
2019-Dec-04 21:13 010 5 gusting 9 2.8
2019-Dec-04 21:04 007 5 gusting 9 2.8
2019-Dec-04 20:55 009 4 gusting 9 2.8
2019-Dec-04 20:46 011 6 gusting 13 2.8
2019-Dec-04 20:37 014 4 gusting 9 2.8
2019-Dec-04 20:28 009 6 gusting 13 2.8
2019-Dec-04 20:19 015 5 gusting 11 2.8
2019-Dec-04 20:10 012 6 gusting 12 2.8
2019-Dec-04 20:01 015 6 gusting 14 2.8
2019-Dec-04 19:52 010 6 gusting 14 2.8
2019-Dec-04 19:43 009 6 gusting 13 2.8
2019-Dec-04 19:34 018 4 gusting 11 2.8
2019-Dec-04 19:25 017 9 gusting 15 2.2
2019-Dec-04 19:16 014 10 gusting 15 2.2
2019-Dec-04 19:07 013 10 gusting 14 2.2
2019-Dec-04 18:58 015 10 gusting 16 2.2
2019-Dec-04 18:49 015 10 gusting 14 2.2
2019-Dec-04 18:40 014 9 gusting 14 2.8
2019-Dec-04 18:31 013 7 gusting 13 2.8
2019-Dec-04 18:22 017 8 gusting 16 2.8
2019-Dec-04 18:13 015 9 gusting 15 2.8
2019-Dec-04 18:04 015 13 gusting 19 2.2
2019-Dec-04 17:55 017 13 gusting 18 2.8
2019-Dec-04 17:46 019 13 gusting 18 2.8
2019-Dec-04 17:37 020 12 gusting 16 2.8
2019-Dec-04 17:28 019 7 gusting 13 2.8
2019-Dec-04 17:19 010 6 gusting 12 2.8
2019-Dec-04 17:10 012 5 gusting 10 2.8
2019-Dec-04 17:01 012 7 gusting 13 2.8
2019-Dec-04 16:52 008 9 gusting 15 2.8
2019-Dec-04 16:43 008 7 gusting 13 2.8
2019-Dec-04 16:34 012 8 gusting 13 2.8
2019-Dec-04 16:25 008 6 gusting 12 2.8
2019-Dec-04 16:16 014 7 gusting 13 2.2
2019-Dec-04 16:07 011 6 gusting 14 2.8
2019-Dec-04 15:58 009 7 gusting 14 2.2
2019-Dec-04 15:49 007 7 gusting 13 2.2
2019-Dec-04 15:40 015 6 gusting 13 2.2
2019-Dec-04 15:31 014 7 gusting 13 1.7
2019-Dec-04 15:22 012 6 gusting 12 1.7
2019-Dec-04 15:13 010 5 gusting 10 1.7
2019-Dec-04 15:04 003 3 gusting 6 1.7
2019-Dec-04 14:55 009 4 gusting 7 1.7
2019-Dec-04 14:46 358 4 gusting 7 1.7
2019-Dec-04 14:37 011 4 gusting 8 1.7
2019-Dec-04 14:28 356 5 gusting 10 1.1
2019-Dec-04 14:19 351 5 gusting 11 1.7
2019-Dec-04 14:10 347 4 gusting 8 1.1
2019-Dec-04 14:01 351 5 gusting 9 1.1
2019-Dec-04 13:52 005 5 gusting 8 1.1
2019-Dec-04 13:43 002 5 gusting 10 0.6
2019-Dec-04 13:34 349 6 gusting 10 0.6
2019-Dec-04 13:25 346 6 gusting 10 0.6
2019-Dec-04 13:16 328 6 gusting 11 0.6
2019-Dec-04 13:07 340 6 gusting 9 0.6
2019-Dec-04 12:58 341 6 gusting 10 0.6
2019-Dec-04 12:49 342 6 gusting 9 0.6
2019-Dec-04 12:40 353 6 gusting 8 0.6
2019-Dec-04 12:31 354 6 gusting 9 0.6
2019-Dec-04 12:22 347 6 gusting 9 -0.0
2019-Dec-04 12:13 350 6 gusting 9 -0.0
2019-Dec-04 12:04 351 6 gusting 9 -0.0
2019-Dec-04 11:55 355 6 gusting 9 -0.0
2019-Dec-04 11:46 357 6 gusting 9 0.6
2019-Dec-04 11:37 346 5 gusting 7 0.6
2019-Dec-04 11:28 333 3 gusting 7 0.6
2019-Dec-04 11:19 009 5 gusting 11 0.6
2019-Dec-04 11:10 007 7 gusting 12 0.6
2019-Dec-04 11:01 015 9 gusting 12 0.6
2019-Dec-04 10:52 008 6 gusting 11 0.6
2019-Dec-04 10:43 014 6 gusting 9 0.6
2019-Dec-04 10:34 020 9 gusting 14 0.6
2019-Dec-04 10:25 023 10 gusting 15 0.6
2019-Dec-04 10:16 023 11 gusting 13 0.6
2019-Dec-04 10:07 024 11 gusting 15 0.6
2019-Dec-04 09:58 016 10 gusting 15 0.6
2019-Dec-04 09:49 029 12 gusting 15 0.6
2019-Dec-04 09:40 028 12 gusting 16 0.6
2019-Dec-04 09:31 027 13 gusting 16 0.6
2019-Dec-04 09:22 028 13 gusting 16 0.6
2019-Dec-04 09:13 031 14 gusting 19 0.6
2019-Dec-04 09:04 031 16 gusting 20 0.6
2019-Dec-04 08:55 029 17 gusting 22 0.6
2019-Dec-04 08:46 029 18 gusting 22 0.6
2019-Dec-04 08:37 033 16 gusting 20 0.6
2019-Dec-04 08:28 035 14 gusting 19 0.6
2019-Dec-04 08:19 034 16 gusting 21 0.6
2019-Dec-04 08:10 034 15 gusting 21 0.6
2019-Dec-04 08:01 033 16 gusting 21 0.6
2019-Dec-04 07:52 043 15 gusting 19 0.6
2019-Dec-04 07:43 053 14 gusting 20 0.6
2019-Dec-04 07:34 050 14 gusting 20 0.6
2019-Dec-04 07:25 039 13 gusting 19 0.6
2019-Dec-04 07:16 052 13 gusting 19 0.6
2019-Dec-04 07:07 035 15 gusting 19 0.6
2019-Dec-04 06:58 031 16 gusting 21 0.6
2019-Dec-04 06:49 035 15 gusting 19 0.6
2019-Dec-04 06:40 038 16 gusting 20 0.6
2019-Dec-04 06:31 026 18 gusting 23 -0.0
2019-Dec-04 06:22 025 19 gusting 25 -0.0
2019-Dec-04 06:13 025 16 gusting 25 -0.0
2019-Dec-04 06:04 019 12 gusting 16 -0.6
2019-Dec-04 05:55 021 10 gusting 16 -0.6
2019-Dec-04 05:46 015 12 gusting 17 -0.6
2019-Dec-04 05:37 017 15 gusting 22 -0.0
2019-Dec-04 05:28 025 17 gusting 21 -0.0
2019-Dec-04 05:19 024 18 gusting 22 -0.0
2019-Dec-04 05:10 026 17 gusting 19 -0.0
2019-Dec-04 05:01 028 17 gusting 19 -0.0
2019-Dec-04 04:52 033 13 gusting 19 -0.0
2019-Dec-04 04:43 047 8 gusting 15 -0.0
2019-Dec-04 04:34 038 14 gusting 19 -0.0
2019-Dec-04 04:25 033 16 gusting 23 -0.0
2019-Dec-04 04:16 033 14 gusting 21 -0.0
2019-Dec-04 04:07 048 15 gusting 21 -0.0
2019-Dec-04 03:58 039 19 gusting 25 -0.0
2019-Dec-04 03:49 031 19 gusting 26 -0.0
2019-Dec-04 03:40 028 19 gusting 26 -0.0
2019-Dec-04 03:31 025 20 gusting 26 -0.0
2019-Dec-04 03:22 024 20 gusting 26 -0.0
2019-Dec-04 03:13 026 19 gusting 26 -0.0
2019-Dec-04 03:04 025 18 gusting 26 -0.0
2019-Dec-04 02:55 024 20 gusting 29 0.6
2019-Dec-04 02:46 024 22 gusting 32 0.6
2019-Dec-04 02:37 026 21 gusting 27 0.6
2019-Dec-04 02:28 033 20 gusting 25 0.6
2019-Dec-04 02:19 037 20 gusting 26 0.6
2019-Dec-04 02:10 035 21 gusting 26 0.6
2019-Dec-04 02:01 031 22 gusting 26 0.6
2019-Dec-04 01:52 033 25 gusting 29 0.6
2019-Dec-04 01:43 029 24 gusting 31 0.6
2019-Dec-04 01:34 028 19 gusting 26 0.6
2019-Dec-04 01:25 033 26 gusting 30 0.6
2019-Dec-04 01:16 032 24 gusting 30 0.6
2019-Dec-04 01:07 033 22 gusting 30 0.6
2019-Dec-04 00:58 033 21 gusting 28 0.6
2019-Dec-04 00:49 029 26 gusting 33 0.6
2019-Dec-04 00:40 033 26 gusting 33 0.6
2019-Dec-04 00:31 033 25 gusting 36 0.6
2019-Dec-04 00:22 028 29 gusting 38 0.6
2019-Dec-04 00:13 027 26 gusting 38 1.1
2019-Dec-04 00:04 023 28 gusting 37 1.1
2019-Dec-03 23:55 024 28 gusting 37 1.1
2019-Dec-03 23:46 026 25 gusting 33 1.1
2019-Dec-03 23:37 026 26 gusting 38 1.1
2019-Dec-03 23:28 027 26 gusting 33 1.7
2019-Dec-03 23:19 028 28 gusting 37 1.7
2019-Dec-03 23:10 029 28 gusting 35 1.7
2019-Dec-03 23:01 033 25 gusting 35 1.7
2019-Dec-03 22:52 033 26 gusting 33 1.7
2019-Dec-03 22:43 033 25 gusting 34 2.2
2019-Dec-03 22:34 035 24 gusting 33 2.2
2019-Dec-03 22:25 033 26 gusting 33 1.7
2019-Dec-03 22:16 033 26 gusting 33 1.7
2019-Dec-03 22:07 034 24 gusting 33 2.2
2019-Dec-03 21:58 038 25 gusting 35 2.2
2019-Dec-03 21:49 035 26 gusting 33 2.2
2019-Dec-03 21:40 041 24 gusting 32 2.2
2019-Dec-03 21:31 042 26 gusting 33 2.2
2019-Dec-03 21:22 037 25 gusting 31 2.2
2019-Dec-03 21:13 044 26 gusting 30 2.2
2019-Dec-03 21:04 042 27 gusting 35 2.2
2019-Dec-03 20:55 042 27 gusting 35 2.2
2019-Dec-03 20:46 042 26 gusting 35 2.2
2019-Dec-03 20:37 036 26 gusting 35 2.2
2019-Dec-03 20:28 033 26 gusting 35 2.2
2019-Dec-03 20:19 035 23 gusting 33 2.2
2019-Dec-03 20:10 036 24 gusting 33 2.2
2019-Dec-03 20:01 030 24 gusting 31 2.2
2019-Dec-03 19:52 031 26 gusting 32 2.2
2019-Dec-03 19:43 036 24 gusting 32 2.2
2019-Dec-03 19:34 039 25 gusting 33 2.2
2019-Dec-03 19:25 044 30 gusting 38 1.7
2019-Dec-03 19:16 046 30 gusting 37 1.7
2019-Dec-03 19:07 041 28 gusting 42 1.7